Latest Weather Observations for Mallacoota

IDV60801

Issued at 6:02 am EDT Tuesday 17 January 2017 (issued every 30 minutes, with the page automatically refreshed every 10 minutes)

About weather observations | Map of weather stations | Latest weather observations for VIC | Other Formats
Station Details ID: 084084 Name: MALLACOOTA Lat: -37.60 Lon: 149.73 Height: 22.0 m
Data from the previous 72 hours. | See also: Recent months at Mallacoota
Date/Time
EDT
Temp
°C
App
Temp
°C
Dew
Point
°C
Rel
Hum
%
Delta-T
°C
Wind Press
QNH
hPa
Press
MSL
hPa
Rain since
9am
mm
Dir  Spd
km/h
Gust
km/h
Spd
kts
Gust
kts
17/06:00am 18.9 18.2 15.4 80 2.1 NW 13 17 7 9 1008.2 1008.1 -
17/05:30am 18.7 17.8 15.8 83 1.7 NW 15 20 8 11 1008.0 1007.9 0.0
17/05:00am 18.6 18.3 16.4 87 1.3 NW 13 19 7 10 1008.1 1008.0 0.0
17/04:30am 19.0 18.5 17.0 88 1.2 NNW 15 20 8 11 1008.2 1008.1 0.0
17/04:00am 19.4 19.3 17.0 86 1.5 NNW 13 19 7 10 1008.5 1008.4 0.0
17/03:30am 19.5 19.5 17.1 86 1.5 NNW 13 19 7 10 1008.6 1008.5 0.0
17/03:00am 19.7 19.7 17.3 86 1.5 NNW 13 20 7 11 1009.1 1009.0 0.0
17/02:30am 19.7 19.6 17.8 89 1.2 NNW 15 20 8 11 1009.1 1009.0 0.0
17/02:00am 19.5 20.2 18.0 91 0.9 NNW 11 17 6 9 1010.1 1010.0 0.0
17/01:30am 19.5 20.6 18.0 91 0.9 NNW 9 13 5 7 1010.5 1010.4 0.0
17/01:00am 19.7 20.5 18.2 91 0.9 N 11 19 6 10 1011.1 1011.0 0.0
17/12:30am 19.0 19.2 17.7 92 0.8 NNW 13 19 7 10 1011.5 1011.4 0.0
17/12:00am 18.3 19.0 17.0 92 0.8 NNW 9 13 5 7 1012.2 1012.1 0.0
 
Date/Time
EDT
Temp
°C
App
Temp
°C
Dew
Point
°C
Rel
Hum
%
Delta-T
°C
Wind Press
QNH
hPa
Press
MSL
hPa
Rain since
9am
mm
Dir  Spd
km/h
Gust
km/h
Spd
kts
Gust
kts
16/11:30pm 17.0 17.5 15.5 91 0.9 NNW 7 7 4 4 1012.8 1012.7 0.0
16/11:00pm 16.8 17.4 15.2 90 0.9 NW 6 7 3 4 1013.2 1013.1 0.0
16/10:30pm 16.7 17.5 14.9 89 1.0 WNW 4 6 2 3 1013.6 1013.5 0.0
16/10:00pm 16.9 17.8 15.1 89 1.0 WNW 4 6 2 3 1013.8 1013.7 0.0
16/09:30pm 17.2 17.8 15.4 89 1.1 NW 6 7 3 4 1013.5 1013.4 0.0
16/09:00pm 17.3 18.5 14.8 85 1.4 W 2 6 1 3 1013.6 1013.5 0.0
16/08:30pm 18.0 19.3 15.1 83 1.7 S 2 7 1 4 1013.7 1013.6 0.0
16/08:00pm 19.4 21.1 15.1 76 2.5 CALM 0 0 0 0 1013.6 1013.5 0.0
16/07:30pm 20.0 20.9 15.0 73 2.9 SE 4 7 2 4 1013.4 1013.3 0.0
16/07:00pm 20.3 20.8 15.1 72 3.1 E 6 7 3 4 1013.5 1013.4 0.0
16/06:30pm 20.2 20.7 15.0 72 3.1 S 6 9 3 5 1013.6 1013.5 0.0
16/06:00pm 19.9 20.1 14.7 72 3.0 SSE 7 9 4 5 1013.7 1013.6 0.0
16/05:30pm 20.2 20.0 14.8 71 3.2 SE 9 13 5 7 1013.6 1013.5 0.0
16/05:00pm 19.9 18.9 14.5 71 3.1 S 13 19 7 10 1014.0 1013.9 0.0
16/04:30pm 20.1 19.4 14.2 69 3.4 SE 11 13 6 7 1013.7 1013.6 0.0
16/04:00pm 19.9 18.5 14.5 71 3.1 S 15 19 8 10 1014.1 1014.0 0.0
16/03:30pm 19.3 17.3 13.9 71 3.1 S 17 22 9 12 1014.4 1014.3 0.0
16/03:00pm 19.4 17.4 13.8 70 3.2 S 17 20 9 11 1014.5 1014.4 0.0
16/02:30pm 20.2 19.1 14.3 69 3.4 S 13 20 7 11 1014.4 1014.3 0.0
16/02:00pm 19.4 17.0 13.8 70 3.2 S 19 24 10 13 1014.6 1014.5 0.0
16/01:30pm 19.2 15.8 13.6 70 3.2 S 24 28 13 15 1014.8 1014.7 0.0
16/01:00pm 18.9 16.3 13.7 72 3.0 S 20 28 11 15 1015.1 1015.0 0.0
16/12:30pm 19.1 15.8 14.1 73 2.9 S 24 30 13 16 1015.2 1015.1 0.0
16/12:00pm 18.7 16.0 13.6 72 2.9 S 20 28 11 15 1015.2 1015.1 0.0
16/11:30am 18.8 15.5 13.9 73 2.8 S 24 28 13 15 1015.3 1015.2 0.0
16/11:00am 18.7 15.9 14.4 76 2.5 S 22 26 12 14 1015.5 1015.4 0.0
16/10:30am 18.5 15.7 14.2 76 2.5 S 22 28 12 15 1015.7 1015.6 0.0
16/10:00am 18.1 15.6 14.0 77 2.3 S 20 24 11 13 1015.8 1015.7 0.0
16/09:30am 18.1 15.6 13.6 75 2.6 S 19 20 10 11 1016.0 1015.9 0.0
16/09:00am 18.0 16.3 13.5 75 2.5 S 15 19 8 10 1016.1 1016.0 0.0
16/08:30am 17.8 16.6 12.9 73 2.7 SSE 11 15 6 8 1016.2 1016.1 0.0
16/08:00am 17.6 16.8 12.9 74 2.6 SSW 9 13 5 7 1016.0 1015.9 0.0
16/07:30am 16.1 15.4 12.1 77 2.2 W 7 9 4 5 1015.7 1015.6 0.0
16/07:00am 14.3 13.3 11.1 81 1.7 W 7 9 4 5 1015.6 1015.5 0.0
16/06:30am 13.6 12.2 10.8 83 1.5 W 9 11 5 6 1015.5 1015.4 0.0
16/06:00am 13.5 12.4 10.7 83 1.5 W 7 9 4 5 1015.4 1015.3 0.0
16/05:30am 13.4 11.9 10.6 83 1.5 W 9 11 5 6 1015.3 1015.2 0.0
16/05:00am 13.5 12.4 10.7 83 1.5 W 7 9 4 5 1015.3 1015.2 0.0
16/04:30am 14.0 13.0 11.0 82 1.6 W 7 9 4 5 1015.2 1015.1 0.0
16/04:00am 14.0 13.0 11.0 82 1.6 W 7 9 4 5 1015.2 1015.1 0.0
16/03:30am 13.8 12.4 11.0 83 1.5 W 9 11 5 6 1015.5 1015.4 0.0
16/03:00am 13.9 12.9 10.9 82 1.6 W 7 11 4 6 1015.6 1015.5 0.0
16/02:30am 14.0 12.6 11.0 82 1.6 W 9 11 5 6 1016.0 1015.9 0.0
16/02:00am 13.7 12.3 11.0 84 1.4 W 9 11 5 6 1016.4 1016.3 0.0
16/01:30am 13.8 12.8 11.1 84 1.4 W 7 9 4 5 1016.9 1016.8 0.0
16/01:00am 14.0 13.1 11.2 83 1.5 W 7 9 4 5 1016.9 1016.8 0.0
16/12:30am 13.5 12.5 10.9 84 1.4 WNW 7 9 4 5 1017.3 1017.2 0.0
16/12:00am 13.6 12.6 11.0 84 1.4 WNW 7 9 4 5 1017.4 1017.3 0.0
 
Date/Time
EDT
Temp
°C
App
Temp
°C
Dew
Point
°C
Rel
Hum
%
Delta-T
°C
Wind Press
QNH
hPa
Press
MSL
hPa
Rain since
9am
mm
Dir  Spd
km/h
Gust
km/h
Spd
kts
Gust
kts
15/11:30pm 13.9 13.0 11.2 84 1.4 WNW 7 9 4 5 1017.7 1017.6 0.0
15/11:00pm 13.7 12.7 11.0 84 1.4 WNW 7 9 4 5 1018.1 1018.0 0.0
15/10:30pm 14.2 13.3 11.2 82 1.6 WNW 7 9 4 5 1018.2 1018.1 0.0
15/10:00pm 14.8 14.0 11.2 79 1.9 W 6 7 3 4 1018.3 1018.2 0.0
15/09:30pm 14.9 14.6 11.3 79 1.9 W 4 7 2 4 1018.3 1018.2 0.0
15/09:00pm 15.4 14.5 11.2 76 2.2 SW 7 11 4 6 1018.1 1018.0 0.0
15/08:30pm 16.1 14.8 11.1 72 2.7 SSW 9 13 5 7 1017.8 1017.7 0.0
15/08:00pm 16.9 14.9 11.4 70 3.0 SSW 13 22 7 12 1017.4 1017.3 0.0
15/07:30pm 17.7 15.1 10.8 64 3.7 SSW 15 20 8 11 1017.2 1017.1 0.0
15/07:00pm 18.1 15.4 11.7 66 3.5 SSW 17 24 9 13 1016.8 1016.7 0.0
15/06:30pm 18.7 15.4 11.5 63 3.9 SSW 20 30 11 16 1016.6 1016.5 0.0
15/06:00pm 18.6 15.3 11.7 64 3.8 S 20 32 11 17 1016.4 1016.3 0.0
15/05:30pm 18.7 15.0 11.5 63 3.9 S 22 33 12 18 1016.2 1016.1 0.0
15/05:00pm 19.2 14.7 11.5 61 4.2 SSW 26 39 14 21 1016.3 1016.2 0.0
15/04:30pm 19.0 14.4 11.1 60 4.3 S 26 39 14 21 1016.5 1016.4 0.0
15/04:00pm 19.6 14.5 10.6 56 4.9 SSW 28 44 15 24 1016.1 1016.0 0.0
15/03:30pm 19.5 14.5 11.0 58 4.6 S 28 46 15 25 1016.1 1016.0 0.0
15/03:27pm 19.3 14.3 11.1 59 4.5 S 28 46 15 25 1016.1 1016.0 0.0
15/03:00pm 19.6 14.6 10.9 57 4.7 S 28 44 15 24 1016.3 1016.2 0.0
15/02:30pm 19.4 14.5 11.2 59 4.5 S 28 41 15 22 1016.2 1016.1 0.0
15/02:00pm 20.4 15.9 9.9 51 5.6 SSW 24 35 13 19 1016.4 1016.3 0.0
15/01:30pm 20.5 15.9 9.7 50 5.8 SSW 24 37 13 20 1016.6 1016.5 0.0
15/01:00pm 20.2 15.6 9.5 50 5.7 SSW 24 35 13 19 1016.8 1016.7 0.0
15/12:30pm 20.2 16.1 10.0 52 5.5 SSW 22 33 12 18 1016.9 1016.8 0.0
15/12:00pm 20.3 16.4 9.5 50 5.7 SSW 20 32 11 17 1016.8 1016.7 0.0
15/11:30am 19.3 14.8 8.6 50 5.6 SW 22 37 12 20 1017.0 1016.9 0.0
15/11:00am 19.2 15.1 8.8 51 5.4 SW 20 37 11 20 1016.9 1016.8 0.0
15/10:30am 19.5 15.1 8.8 50 5.6 SW 22 41 12 22 1017.1 1017.0 0.0
15/10:00am 18.9 14.4 8.6 51 5.3 SW 22 43 12 23 1017.1 1017.0 0.0
15/09:30am 17.9 13.5 7.6 51 5.2 SW 20 37 11 20 1016.9 1016.8 0.0
15/09:00am 17.4 12.8 8.0 54 4.8 SW 22 39 12 21 1016.8 1016.7 0.0
15/08:30am 17.0 12.4 8.2 56 4.5 WSW 22 35 12 19 1016.6 1016.5 0.0
15/08:00am 16.0 12.4 8.5 61 3.8 WSW 17 28 9 15 1016.5 1016.4 0.0
15/07:30am 15.6 12.8 8.6 63 3.6 WSW 13 22 7 12 1016.4 1016.3 0.0
15/07:00am 15.3 12.5 8.5 64 3.4 WSW 13 20 7 11 1016.1 1016.0 0.0
15/06:30am 15.0 12.2 8.5 65 3.3 W 13 24 7 13 1015.3 1015.2 0.0
15/06:00am 14.8 12.0 8.5 66 3.2 W 13 22 7 12 1015.1 1015.0 0.0
15/05:30am 15.3 12.9 8.5 64 3.4 WSW 11 19 6 10 1014.9 1014.8 0.0
15/05:00am 15.8 13.4 8.8 63 3.6 WSW 11 22 6 12 1014.3 1014.2 0.0
15/04:30am 16.1 13.4 8.8 62 3.7 WSW 13 24 7 13 1014.0 1013.9 0.0
15/04:00am 16.3 13.2 8.8 61 3.8 SW 15 30 8 16 1013.8 1013.7 0.0
15/03:30am 16.4 13.6 8.6 60 4.0 SW 13 26 7 14 1013.8 1013.7 0.0
15/03:00am 16.4 14.3 8.4 59 4.1 SW 9 15 5 8 1013.9 1013.8 0.0
15/02:30am 16.4 12.2 8.1 58 4.2 SW 20 32 11 17 1013.6 1013.5 0.0
15/02:00am 16.9 12.7 8.1 56 4.5 WSW 20 44 11 24 1013.5 1013.4 0.0
15/01:30am 17.0 12.7 9.2 60 4.1 WSW 22 43 12 23 1013.4 1013.3 0.0
15/01:00am 17.2 13.3 9.6 61 4.0 SW 20 35 11 19 1013.3 1013.2 0.0
15/12:30am 17.3 12.7 9.5 60 4.1 SW 24 43 13 23 1013.0 1012.9 0.0
15/12:00am 17.0 13.4 9.9 63 3.7 WSW 19 35 10 19 1012.9 1012.8 0.0
 
Date/Time
EDT
Temp
°C
App
Temp
°C
Dew
Point
°C
Rel
Hum
%
Delta-T
°C
Wind Press
QNH
hPa
Press
MSL
hPa
Rain since
9am
mm
Dir  Spd
km/h
Gust
km/h
Spd
kts
Gust
kts
14/11:30pm 17.1 14.7 10.2 64 3.7 WSW 13 26 7 14 1012.7 1012.6 0.0
14/11:00pm 17.4 14.4 10.8 65 3.5 WSW 17 26 9 14 1012.5 1012.4 0.0
14/10:30pm 17.8 15.0 11.4 66 3.5 WSW 17 26 9 14 1012.3 1012.2 0.0
14/10:00pm 18.0 14.4 11.8 67 3.4 SW 22 41 12 22 1011.9 1011.8 0.0
14/09:30pm 18.0 16.5 12.0 68 3.3 SW 11 19 6 10 1011.3 1011.2 0.0
14/09:00pm 18.2 16.1 12.4 69 3.2 SW 15 30 8 16 1010.6 1010.5 0.0
14/08:30pm 18.4 15.0 12.4 68 3.3 SW 22 43 12 23 1010.1 1010.0 0.0
14/08:00pm 18.6 15.7 13.0 70 3.2 SSW 20 33 11 18 1009.4 1009.3 0.0
14/07:30pm 19.6 17.0 13.1 66 3.7 SW 19 28 10 15 1008.5 1008.4 0.0
14/07:00pm 21.0 16.7 12.2 57 5.0 SSW 26 44 14 24 1007.8 1007.7 0.0
14/06:30pm 21.4 16.4 10.9 51 5.8 SW 28 54 15 29 1007.1 1007.0 0.0
14/06:00pm 22.1 17.1 10.9 49 6.2 SW 28 50 15 27 1006.5 1006.4 0.0
14/05:30pm 22.1 16.2 10.3 47 6.4 SW 32 52 17 28 1006.2 1006.1 0.0
14/05:00pm 22.6 17.3 9.7 44 7.0 SW 28 56 15 30 1005.7 1005.6 0.0
14/04:30pm 22.8 16.5 9.6 43 7.1 SW 33 57 18 31 1005.8 1005.7 0.0
14/04:00pm 23.0 16.7 9.8 43 7.2 SW 33 61 18 33 1005.3 1005.2 0.0
14/03:30pm 22.8 16.5 8.9 41 7.4 SW 32 54 17 29 1005.0 1004.9 0.0
14/03:01pm 22.7 17.4 9.8 44 7.0 SW 28 46 15 25 1004.7 1004.6 0.0
14/03:00pm 22.8 17.0 9.6 43 7.2 SW 30 46 16 25 1004.7 1004.6 0.0
14/02:58pm 23.2 17.8 9.6 42 7.4 SW 28 46 15 25 1004.7 1004.6 0.0
14/02:30pm 23.3 18.6 9.3 41 7.6 SW 24 39 13 21 1004.3 1004.2 0.0
14/02:15pm 23.3 17.8 9.3 41 7.6 SW 28 46 15 25 1004.2 1004.1 0.0
14/02:00pm 23.4 18.5 9.8 42 7.4 SW 26 39 14 21 1004.3 1004.2 0.0
14/01:30pm 22.7 18.4 9.5 43 7.1 WSW 22 43 12 23 1004.4 1004.3 0.0
14/01:00pm 22.3 17.3 9.5 44 6.9 WSW 26 41 14 22 1004.6 1004.5 0.0
14/12:30pm 21.6 16.2 9.5 46 6.5 SW 28 43 15 23 1004.6 1004.5 0.0
14/12:00pm 22.0 17.2 8.9 43 7.0 SW 24 37 13 20 1004.7 1004.6 0.0
14/11:30am 21.3 16.0 8.6 44 6.7 WSW 26 46 14 25 1004.6 1004.5 0.0
14/11:16am 20.8 15.1 8.4 45 6.5 SW 28 54 15 29 1004.7 1004.6 0.0
14/11:00am 20.5 15.9 9.7 50 5.8 SW 24 46 13 25 1004.7 1004.6 0.0
14/10:30am 20.4 15.8 9.6 50 5.8 SW 24 46 13 25 1004.6 1004.5 0.0
14/10:00am 20.0 16.5 11.0 56 4.9 SW 20 32 11 17 1004.7 1004.6 0.0
14/09:30am 19.6 17.1 12.4 63 4.0 WSW 17 30 9 16 1004.7 1004.6 0.0
14/09:00am 17.9 14.8 11.5 66 3.5 SW 19 30 10 16 1004.6 1004.5 6.8
14/08:30am 17.7 14.4 11.5 67 3.4 SW 20 33 11 18 1004.6 1004.5 6.8
14/08:00am 17.9 14.9 12.1 69 3.2 SW 19 35 10 19 1004.1 1004.0 6.8
14/07:30am 17.9 15.5 12.8 72 2.9 SW 17 28 9 15 1003.6 1003.5 6.8
14/07:00am 17.8 15.4 12.7 72 2.9 SW 17 28 9 15 1003.1 1003.0 6.8
14/06:30am 17.2 15.1 12.5 74 2.6 WSW 15 28 8 15 1002.7 1002.6 6.8

Other Formats:

Comma delimited format used in spreadsheet applications
http://www.bom.gov.au/fwo/IDV60801/IDV60801.94935.axf

JavaScript Object Notation format (JSON) in row-major order
http://www.bom.gov.au/fwo/IDV60801/IDV60801.94935.json